Port Mellon, Canada
Current Conditions -  °F | °C
As of 5:27 PM on Monday 24 Nov 2014 (Local Time) from CYVR Reporting Station
Light Rain Light Rain  
Wind Chill: 38°   Ceiling: 1400
Heat Index: 45°   Visibility: 8mi
Dew Point: 43°   Wind: 13mph
Humidity: 93%   Direction: 70°ENE
Pressure: 30.1"   Gusts: NA
Location:  49.52°N, 123.48°W
Report Text: CYVR 250127Z 07011KT 8SM -RA FEW009 BKN014 OVC030 07/06 A3010 RMK SF1SF5SC2 CIG RAG SLP191
Loading
Personal Weather Stations






























Interactive Weather Map New forecast layout! Learn more

10-Day Weather Forecast

Advertisements
Track Severe Weather on mobile